Time;durP1;ratioP1;P1;durP2;ratioP2;P2;SDS_P1;SDS_P2;PMS_P1;PMS_P2;Temp;Humidity;BMP_temperature;BMP_pressure;BME280_temperature;BME280_humidity;BME280_pressure;Samples;Min_cycle;Max_cycle;Signal;HPM_P1;HPM_P2
2022/08/27 00:00:07;;;;;;;2.50;1.52;;;;;;;20.60;100.00;99345.69;1786918;79;21014;-51
2022/08/27 00:02:34;;;;;;;2.17;0.98;;;;;;;20.54;100.00;99340.81;1781106;79;21607;-53
2022/08/27 00:05:02;;;;;;;3.75;1.35;;;;;;;20.49;100.00;99341.77;1778823;79;21010;-52
2022/08/27 00:07:29;;;;;;;4.62;1.20;;;;;;;20.44;100.00;99347.66;1787393;79;21025;-51
2022/08/27 00:09:55;;;;;;;3.55;1.15;;;;;;;20.41;100.00;99344.38;1780624;79;21935;-51
2022/08/27 00:12:22;;;;;;;2.33;1.37;;;;;;;20.38;100.00;99347.75;1779562;79;21013;-52
2022/08/27 00:14:49;;;;;;;4.28;1.40;;;;;;;20.35;100.00;99342.56;1783566;79;21062;-50
2022/08/27 00:17:16;;;;;;;8.55;1.67;;;;;;;20.31;100.00;99343.84;1784555;79;21162;-51
2022/08/27 00:19:43;;;;;;;3.60;1.22;;;;;;;20.28;100.00;99341.39;1788446;79;21497;-51
2022/08/27 00:22:09;;;;;;;2.30;1.40;;;;;;;20.26;100.00;99338.44;1790935;79;21188;-51
2022/08/27 00:24:36;;;;;;;1.37;1.15;;;;;;;20.21;100.00;99336.16;1785156;79;21006;-52
2022/08/27 00:27:03;;;;;;;2.52;1.37;;;;;;;20.20;100.00;99335.79;1781339;79;21508;-50
2022/08/27 00:29:29;;;;;;;5.45;1.42;;;;;;;20.19;100.00;99337.30;1789180;79;21018;-52
2022/08/27 00:31:56;;;;;;;3.62;1.35;;;;;;;20.18;100.00;99338.30;1789415;79;21085;-52
2022/08/27 00:34:23;;;;;;;4.17;1.60;;;;;;;20.20;100.00;99339.03;1785210;79;21583;-51
2022/08/27 00:36:49;;;;;;;4.72;1.72;;;;;;;20.18;100.00;99341.03;1789137;79;21015;-52
2022/08/27 00:39:15;;;;;;;4.30;1.40;;;;;;;20.16;100.00;99337.61;1781159;79;21094;-51
2022/08/27 00:41:42;;;;;;;4.37;1.35;;;;;;;20.15;100.00;99332.64;1785457;79;21658;-52
2022/08/27 00:44:08;;;;;;;5.67;1.82;;;;;;;20.14;100.00;99339.11;1787039;79;21042;-52
2022/08/27 00:46:47;;;;;;;3.08;1.20;;;;;;;20.13;100.00;99341.48;1780725;79;21956;-52
2022/08/27 00:49:18;;;;;;;5.37;1.55;;;;;;;20.15;100.00;99342.71;1788481;78;21088;-52
2022/08/27 00:51:49;;;;;;;3.62;1.10;;;;;;;20.16;100.00;99343.91;1790015;78;21553;-52
2022/08/27 00:54:16;;;;;;;5.28;1.50;;;;;;;20.18;100.00;99336.44;1786014;78;22253;-50
2022/08/27 00:56:43;;;;;;;6.22;1.50;;;;;;;20.21;100.00;99344.86;1781315;78;21056;-51
2022/08/27 01:04:32;;;;;;;1.90;1.20;;;;;;;20.31;100.00;99349.81;1741014;80;21100;-51
2022/08/27 01:06:59;;;;;;;3.50;1.40;;;;;;;20.35;100.00;99338.97;1743595;80;21143;-51
2022/08/27 01:09:25;;;;;;;3.98;1.32;;;;;;;20.38;100.00;99346.89;1711611;80;21649;-52
2022/08/27 01:11:54;;;;;;;4.20;1.85;;;;;;;20.41;100.00;99345.75;1738570;80;20942;-51
2022/08/27 01:14:21;;;;;;;4.92;1.30;;;;;;;20.44;100.00;99344.06;1705736;82;21037;-50
2022/08/27 01:16:51;;;;;;;2.35;1.42;;;;;;;20.44;100.00;99347.66;1682012;83;20985;-52
2022/08/27 01:19:26;;;;;;;1.47;1.37;;;;;;;20.44;100.00;99348.16;1682730;83;21799;-51
2022/08/27 01:21:58;;;;;;;4.05;1.32;;;;;;;20.44;100.00;99349.53;1699951;82;21551;-52
2022/08/27 01:24:44;;;;;;;3.40;2.02;;;;;;;20.41;100.00;99347.11;1694512;82;21083;-52
2022/08/27 01:27:14;;;;;;;4.62;1.32;;;;;;;20.38;100.00;99342.28;1699544;82;21396;-51
2022/08/27 01:29:41;;;;;;;4.17;1.77;;;;;;;20.35;100.00;99343.93;1707153;82;20964;-51
2022/08/27 01:32:28;;;;;;;3.58;1.27;;;;;;;20.32;100.00;99340.61;1700608;82;21753;-52
2022/08/27 01:34:55;;;;;;;2.50;1.25;;;;;;;20.29;100.00;99338.16;1715197;82;20970;-51
2022/08/27 01:37:22;;;;;;;3.72;1.60;;;;;;;20.27;100.00;99341.53;1693453;83;20922;-51
2022/08/27 01:39:49;;;;;;;5.55;2.00;;;;;;;20.25;100.00;99344.91;1684503;83;21009;-52
2022/08/27 01:42:20;;;;;;;3.35;1.60;;;;;;;20.21;100.00;99345.72;1689088;83;20946;-52
2022/08/27 01:44:56;;;;;;;5.28;1.60;;;;;;;20.17;100.00;99342.91;1687479;83;21133;-51
2022/08/27 01:47:24;;;;;;;1.92;1.40;;;;;;;20.17;100.00;99340.67;1683553;83;20934;-50
2022/08/27 01:49:50;;;;;;;2.22;1.47;;;;;;;20.14;100.00;99338.25;1696076;83;20906;-51
2022/08/27 01:52:20;;;;;;;2.75;1.40;;;;;;;20.13;100.00;99337.88;1701331;83;20977;-51
2022/08/27 01:54:46;;;;;;;2.80;1.65;;;;;;;20.13;100.00;99341.48;1750711;80;20883;-51
2022/08/27 01:57:13;;;;;;;3.58;1.70;;;;;;;20.12;100.00;99338.39;1739064;80;21869;-52
2022/08/27 01:59:40;;;;;;;3.70;1.87;;;;;;;20.09;100.00;99330.47;1722367;81;20918;-53
2022/08/27 02:02:08;;;;;;;4.60;1.77;;;;;;;20.07;100.00;99338.47;1681396;83;20938;-53
2022/08/27 02:04:35;;;;;;;3.95;1.30;;;;;;;20.04;100.00;99340.98;1683152;83;20875;-52
2022/08/27 02:07:01;;;;;;;8.80;1.90;;;;;;;20.01;100.00;99333.92;1662231;84;21064;-53
2022/08/27 02:09:28;;;;;;;4.90;1.70;;;;;;;19.98;100.00;99336.09;1666976;84;21234;-53
2022/08/27 02:11:54;;;;;;;5.92;1.60;;;;;;;19.93;100.00;99337.01;1721344;81;21591;-53
2022/08/27 02:14:21;;;;;;;4.08;1.87;;;;;;;19.89;100.00;99338.32;1708435;82;21094;-53
2022/08/27 02:16:48;;;;;;;1.80;1.42;;;;;;;19.88;100.00;99336.09;1710538;82;21407;-53
2022/08/27 02:19:15;;;;;;;6.20;1.67;;;;;;;19.88;100.00;99341.55;1664955;84;21088;-53
2022/08/27 02:21:41;;;;;;;2.77;1.85;;;;;;;19.85;100.00;99343.19;1711043;82;21171;-53
2022/08/27 02:24:08;;;;;;;2.58;1.90;;;;;;;19.85;100.00;99336.86;1715301;82;21070;-53
2022/08/27 02:26:34;;;;;;;4.40;1.47;;;;;;;19.85;100.00;99335.50;1715484;82;21070;-53
2022/08/27 02:29:01;;;;;;;3.98;2.00;;;;;;;19.85;100.00;99338.23;1712855;82;21069;-52
2022/08/27 02:31:27;;;;;;;1.87;1.67;;;;;;;19.85;100.00;99334.12;1714920;82;21128;-53
2022/08/27 02:33:54;;;;;;;4.33;1.90;;;;;;;19.83;100.00;99337.50;1674841;83;21161;-52
2022/08/27 02:36:20;;;;;;;3.33;1.70;;;;;;;19.80;100.00;99335.08;1675755;83;22429;-53
2022/08/27 02:38:47;;;;;;;7.92;1.70;;;;;;;19.76;100.00;99334.48;1669731;83;21075;-52
2022/08/27 02:41:15;;;;;;;2.72;1.70;;;;;;;19.73;100.00;99338.02;1682659;83;21555;-52
2022/08/27 02:43:42;;;;;;;5.47;1.87;;;;;;;19.67;100.00;99333.97;1677500;83;21117;-53
2022/08/27 02:46:10;;;;;;;4.80;1.90;;;;;;;19.62;100.00;99337.13;1667018;84;21482;-52
2022/08/27 02:48:38;;;;;;;3.77;2.02;;;;;;;19.56;100.00;99330.85;1665418;84;21353;-53
2022/08/27 02:51:05;;;;;;;2.98;1.87;;;;;;;19.53;100.00;99328.42;1654147;84;21515;-53
2022/08/27 02:53:32;;;;;;;3.98;2.33;;;;;;;19.49;100.00;99330.19;1662429;84;21128;-52
2022/08/27 02:55:58;;;;;;;2.70;1.95;;;;;;;19.48;100.00;99336.69;1659079;84;21097;-53
2022/08/27 02:58:25;;;;;;;9.90;2.15;;;;;;;19.45;100.00;99338.28;1713633;82;21088;-53
2022/08/27 03:00:51;;;;;;;4.08;2.02;;;;;;;19.42;100.00;99327.14;1714021;82;21057;-53
2022/08/27 03:03:18;;;;;;;2.50;1.67;;;;;;;19.40;100.00;99333.23;1703197;82;21070;-53
2022/08/27 03:05:45;;;;;;;8.23;1.98;;;;;;;19.39;100.00;99331.53;1697073;82;21100;-53
2022/08/27 03:08:11;;;;;;;4.85;2.20;;;;;;;19.40;100.00;99331.00;1700157;82;21073;-53
2022/08/27 03:10:38;;;;;;;5.22;2.02;;;;;;;19.41;100.00;99334.95;1704218;82;21972;-53
2022/08/27 03:13:05;;;;;;;2.85;1.50;;;;;;;19.41;100.00;99330.86;1702194;82;21550;-53
2022/08/27 03:15:32;;;;;;;3.83;1.85;;;;;;;19.40;100.00;99337.32;1699717;82;21053;-53
2022/08/27 03:18:17;;;;;;;2.40;2.12;;;;;;;19.40;100.00;99326.91;1704184;82;21721;-53
2022/08/27 03:20:50;;;;;;;6.03;2.58;;;;;;;19.40;100.00;99340.05;1673293;83;21042;-53
2022/08/27 03:23:21;;;;;;;3.45;2.50;;;;;;;19.35;100.00;99336.89;1705667;82;21139;-52
2022/08/27 03:25:51;;;;;;;10.40;2.10;;;;;;;19.33;100.00;99333.43;1711405;82;21576;-52
2022/08/27 03:28:20;;;;;;;3.22;1.92;;;;;;;19.32;100.00;99328.97;1706748;82;21105;-53
2022/08/27 03:30:52;;;;;;;5.05;2.10;;;;;;;19.33;100.00;99335.30;1708833;82;21117;-52
2022/08/27 03:33:20;;;;;;;6.35;2.40;;;;;;;19.32;100.00;99339.02;1718407;82;21085;-51
2022/08/27 03:35:47;;;;;;;9.15;2.27;;;;;;;19.32;100.00;99333.06;1715369;82;21142;-52
2022/08/27 03:38:14;;;;;;;2.83;2.25;;;;;;;19.32;100.00;99333.06;1712625;82;21118;-51
2022/08/27 03:40:42;;;;;;;4.58;2.12;;;;;;;19.31;100.00;99328.60;1710948;82;21295;-51
2022/08/27 03:43:11;;;;;;;4.05;2.52;;;;;;;19.29;100.00;99325.17;1714624;82;21082;-52
2022/08/27 03:45:41;;;;;;;9.73;2.08;;;;;;;19.30;100.00;99322.81;1711197;82;21092;-52
2022/08/27 03:48:09;;;;;;;3.12;2.12;;;;;;;19.30;100.00;99321.45;1690483;82;21128;-52
2022/08/27 03:50:41;;;;;;;4.40;1.77;;;;;;;19.32;100.00;99326.23;1708229;82;21491;-50
2022/08/27 03:53:08;;;;;;;5.92;1.42;;;;;;;19.35;100.00;99322.37;1707123;82;21389;-50
2022/08/27 03:55:34;;;;;;;2.75;1.95;;;;;;;19.38;100.00;99322.98;1712971;82;21520;-51
2022/08/27 03:58:00;;;;;;;5.35;1.80;;;;;;;19.39;100.00;99317.88;1712858;82;21037;-52
2022/08/27 04:00:27;;;;;;;4.95;2.15;;;;;;;19.42;100.00;99313.98;1709521;82;21156;-51
2022/08/27 04:02:54;;;;;;;5.30;1.65;;;;;;;19.44;100.00;99321.05;1710475;82;21090;-51
2022/08/27 04:05:21;;;;;;;3.10;2.17;;;;;;;19.46;100.00;99314.95;1712534;82;22454;-51
2022/08/27 04:07:48;;;;;;;2.62;1.87;;;;;;;19.48;100.00;99319.77;1707380;82;21113;-51
2022/08/27 04:10:15;;;;;;;4.12;2.67;;;;;;;19.52;100.00;99316.27;1709812;82;21092;-52
2022/08/27 04:12:42;;;;;;;3.47;2.45;;;;;;;19.56;100.00;99314.47;1712437;82;22337;-51
2022/08/27 04:15:10;;;;;;;6.80;2.50;;;;;;;19.62;100.00;99313.06;1708872;82;21048;-50
2022/08/27 04:17:38;;;;;;;4.28;2.15;;;;;;;19.67;100.00;99316.22;1713267;82;21117;-53
2022/08/27 04:20:06;;;;;;;5.70;2.30;;;;;;;19.74;100.00;99315.14;1706149;82;21152;-52
2022/08/27 04:22:33;;;;;;;4.58;2.37;;;;;;;19.78;100.00;99319.33;1712343;82;21090;-52
2022/08/27 04:25:00;;;;;;;5.50;2.40;;;;;;;19.84;100.00;99310.05;1709381;82;21586;-52
2022/08/27 04:27:27;;;;;;;3.98;2.20;;;;;;;19.89;100.00;99312.38;1711252;81;21098;-52
2022/08/27 04:29:57;;;;;;;5.45;2.95;;;;;;;19.94;100.00;99313.66;1711594;82;21088;-53
2022/08/27 04:32:25;;;;;;;3.15;2.30;;;;;;;20.00;100.00;99304.88;1710869;82;21665;-53
2022/08/27 04:34:55;;;;;;;8.15;2.55;;;;;;;20.05;100.00;99307.19;1706586;82;21174;-53
2022/08/27 04:37:23;;;;;;;12.33;2.27;;;;;;;20.10;100.00;99303.51;1703960;82;21237;-53
2022/08/27 04:39:50;;;;;;;5.67;1.87;;;;;;;20.13;100.00;99300.50;1710824;82;20989;-52
2022/08/27 04:42:20;;;;;;;5.42;2.37;;;;;;;20.17;100.00;99301.91;1673059;83;20965;-53
2022/08/27 04:44:46;;;;;;;6.72;2.15;;;;;;;20.21;100.00;99295.16;1646529;85;21331;-55
2022/08/27 04:47:13;;;;;;;5.53;2.17;;;;;;;20.25;100.00;99283.42;1661574;84;21006;-55
2022/08/27 04:49:40;;;;;;;3.92;2.00;;;;;;;20.27;100.00;99295.07;1654740;84;21064;-54
2022/08/27 04:52:06;;;;;;;8.05;2.35;;;;;;;20.29;100.00;99299.90;1711781;82;20918;-54
2022/08/27 04:54:34;;;;;;;43.73;12.65;;;;;;;20.30;100.00;99291.55;1710769;82;20899;-57
2022/08/27 04:57:01;;;;;;;15.32;4.47;;;;;;;20.32;100.00;99293.65;1715071;82;21065;-54
2022/08/27 04:59:28;;;;;;;10.80;2.37;;;;;;;20.34;100.00;99290.27;1710849;82;20934;-54
2022/08/27 05:01:55;;;;;;;5.92;2.08;;;;;;;20.33;100.00;99293.98;1702249;82;21153;-54
2022/08/27 05:04:22;;;;;;;15.85;2.80;;;;;;;20.34;100.00;99291.64;1693704;82;21989;-54
2022/08/27 05:06:49;;;;;;;10.82;2.75;;;;;;;20.35;100.00;99296.60;1696363;82;20938;-54
2022/08/27 05:09:16;;;;;;;7.42;1.98;;;;;;;20.36;100.00;99291.50;1700614;82;21313;-54
2022/08/27 05:11:43;;;;;;;5.87;2.27;;;;;;;20.37;100.00;99298.69;1693303;82;21076;-55
2022/08/27 05:14:12;;;;;;;9.73;2.10;;;;;;;20.39;100.00;99299.41;1701217;82;21137;-54
2022/08/27 05:16:38;;;;;;;8.95;2.55;;;;;;;20.41;100.00;99296.54;1697322;82;21077;-54
2022/08/27 05:19:09;;;;;;;7.58;2.00;;;;;;;20.42;100.00;99292.27;1697032;82;21101;-55
2022/08/27 05:21:38;;;;;;;8.58;2.05;;;;;;;20.45;100.00;99296.08;1693007;82;21061;-55
2022/08/27 05:24:06;;;;;;;4.12;1.52;;;;;;;20.49;100.00;99302.13;1695043;82;21034;-55
2022/08/27 05:26:34;;;;;;;5.35;2.25;;;;;;;20.53;100.00;99296.70;1693046;82;21194;-55
2022/08/27 05:29:03;;;;;;;4.87;1.70;;;;;;;20.56;100.00;99293.19;1702887;82;21755;-54
2022/08/27 05:31:30;;;;;;;9.48;2.12;;;;;;;20.62;100.00;99297.19;1694919;82;21640;-55
2022/08/27 05:33:56;;;;;;;8.10;1.70;;;;;;;20.67;100.00;99296.26;1697493;82;21454;-55
2022/08/27 05:36:28;;;;;;;7.20;2.50;;;;;;;20.71;100.00;99294.93;1697624;82;21633;-55
2022/08/27 05:38:56;;;;;;;7.10;2.90;;;;;;;20.75;100.00;99297.74;1662901;84;21538;-55
2022/08/27 05:41:26;;;;;;;5.00;2.12;;;;;;;20.78;100.00;99295.55;1698768;82;21097;-55
2022/08/27 05:43:56;;;;;;;6.70;2.37;;;;;;;20.81;100.00;99291.66;1664023;84;21401;-55
2022/08/27 05:46:23;;;;;;;4.72;2.25;;;;;;;20.83;100.00;99296.48;1664158;84;21066;-54
2022/08/27 05:48:50;;;;;;;4.78;2.15;;;;;;;20.85;100.00;99292.20;1693494;82;21070;-55
2022/08/27 05:51:21;;;;;;;5.22;2.25;;;;;;;20.87;100.00;99297.89;1698367;82;22471;-55
2022/08/27 05:53:47;;;;;;;4.60;2.25;;;;;;;20.89;100.00;99297.24;1702311;82;21109;-55
2022/08/27 05:56:16;;;;;;;6.90;2.17;;;;;;;20.91;100.00;99293.86;1693050;82;21560;-55
2022/08/27 06:01:29;;;;;;;4.97;2.17;;;;;;;20.97;100.00;99301.45;1692900;82;21081;-55
2022/08/27 06:03:56;;;;;;;8.10;3.05;;;;;;;21.00;100.00;99295.69;1673248;83;21206;-55
2022/08/27 06:06:22;;;;;;;5.92;1.87;;;;;;;21.03;100.00;99295.88;1693475;82;21363;-55
2022/08/27 06:08:50;;;;;;;3.75;2.12;;;;;;;21.05;100.00;99298.83;1704472;82;21468;-55
2022/08/27 06:11:18;;;;;;;4.80;2.60;;;;;;;21.08;100.00;99294.94;1676041;82;21531;-55
2022/08/27 06:13:45;;;;;;;7.15;2.05;;;;;;;21.10;100.00;99292.88;1697997;82;21140;-55
2022/08/27 06:16:15;;;;;;;4.78;2.05;;;;;;;21.10;100.00;99291.01;1700763;82;21137;-55
2022/08/27 06:18:44;;;;;;;7.37;1.82;;;;;;;21.11;100.00;99291.37;1702550;82;21052;-56
2022/08/27 06:21:11;;;;;;;6.12;1.47;;;;;;;21.13;100.00;99299.43;1695015;82;21054;-55
2022/08/27 06:23:38;;;;;;;3.67;1.22;;;;;;;21.15;100.00;99298.78;1696891;82;21052;-55
2022/08/27 06:26:06;;;;;;;5.55;1.60;;;;;;;21.18;100.00;99296.29;1664306;84;21078;-55
2022/08/27 06:28:34;;;;;;;7.70;2.02;;;;;;;21.20;100.00;99298.34;1641541;85;21777;-55
2022/08/27 06:31:10;;;;;;;5.22;1.60;;;;;;;21.22;100.00;99304.03;1642317;85;21098;-55
2022/08/27 06:33:37;;;;;;;9.38;2.05;;;;;;;21.26;100.00;99303.23;1646248;85;21196;-55
2022/08/27 06:36:06;;;;;;;5.97;1.57;;;;;;;21.27;100.00;99304.92;1648711;85;21082;-55
2022/08/27 06:38:33;;;;;;;4.53;1.37;;;;;;;21.29;100.00;99305.14;1648262;85;22494;-55
2022/08/27 06:41:06;;;;;;;3.55;1.32;;;;;;;21.31;100.00;99309.96;1698759;82;22316;-55
2022/08/27 06:43:37;;;;;;;9.25;2.00;;;;;;;21.33;100.00;99304.34;1699330;82;21068;-55
2022/08/27 06:46:06;;;;;;;10.32;2.37;;;;;;;21.35;100.00;99299.58;1700297;82;21124;-55
2022/08/27 06:48:32;;;;;;;6.40;1.62;;;;;;;21.37;100.00;99297.53;1696587;82;21072;-55
2022/08/27 06:50:59;;;;;;;8.78;1.67;;;;;;;21.37;100.00;99296.16;1691983;82;21117;-55
2022/08/27 06:53:25;;;;;;;6.08;1.70;;;;;;;21.38;100.00;99293.78;1666790;84;21313;-55
2022/08/27 06:55:52;;;;;;;2.72;1.52;;;;;;;21.40;100.00;99291.75;1666633;84;21154;-55
2022/08/27 06:58:19;;;;;;;4.28;1.40;;;;;;;21.39;100.00;99288.16;1706952;82;21051;-55
2022/08/27 07:00:46;;;;;;;5.85;1.47;;;;;;;21.40;100.00;99288.52;1695539;82;21070;-55
2022/08/27 07:03:12;;;;;;;3.08;1.40;;;;;;;21.42;100.00;99288.36;1707503;82;21531;-55
2022/08/27 07:05:39;;;;;;;6.40;1.60;;;;;;;21.43;100.00;99275.89;1684477;82;21138;-55
2022/08/27 07:08:06;;;;;;;2.75;1.10;;;;;;;21.46;100.00;99286.52;1711549;82;21587;-56
2022/08/27 07:10:33;;;;;;;6.03;1.40;;;;;;;21.51;100.00;99284.70;1715072;82;21085;-55
2022/08/27 07:12:59;;;;;;;11.28;1.60;;;;;;;21.55;100.00;99277.02;1675927;83;21081;-55
2022/08/27 07:15:26;;;;;;;2.90;1.17;;;;;;;21.57;100.00;99279.11;1661214;84;21058;-55
2022/08/27 07:17:53;;;;;;;3.05;1.10;;;;;;;21.59;100.00;99272.47;1657886;84;21109;-55
2022/08/27 07:20:19;;;;;;;3.50;1.30;;;;;;;21.62;100.00;99265.80;1653643;84;21122;-55
2022/08/27 07:22:46;;;;;;;7.05;1.72;;;;;;;21.65;100.00;99271.84;1659709;84;21086;-55
2022/08/27 07:25:18;;;;;;;5.03;1.10;;;;;;;21.66;100.00;99261.23;1713164;82;20966;-55
2022/08/27 07:27:44;;;;;;;6.15;1.45;;;;;;;21.69;100.00;99258.70;1709263;82;21033;-55
2022/08/27 07:30:11;;;;;;;4.58;1.82;;;;;;;21.70;100.00;99261.26;1703420;82;21495;-56
2022/08/27 07:32:38;;;;;;;6.25;1.10;;;;;;;21.72;100.00;99266.08;1719610;82;20966;-55
2022/08/27 07:35:08;;;;;;;5.72;1.52;;;;;;;21.77;100.00;99266.49;1716488;82;20889;-55
2022/08/27 07:37:38;;;;;;;7.35;1.80;;;;;;;21.82;100.00;99262.76;1675189;83;20994;-55
2022/08/27 07:40:06;;;;;;;9.33;1.40;;;;;;;21.92;100.00;99267.30;1685856;83;20962;-54
2022/08/27 07:45:18;;;;;;;;;;;;;;;22.11;100.00;99267.16;1668609;84;20981;-55
2022/08/27 07:47:45;;;;;;;3.80;1.67;;;;;;;22.24;100.00;99262.11;1665234;84;20484;-54
2022/08/27 07:50:11;;;;;;;6.53;1.62;;;;;;;22.33;100.00;99258.92;1663199;84;20922;-54
2022/08/27 07:52:38;;;;;;;5.90;1.67;;;;;;;22.42;100.00;99259.33;1664040;84;20942;-53
2022/08/27 07:55:05;;;;;;;7.65;1.92;;;;;;;22.51;100.00;99256.48;1664601;84;21176;-55
2022/08/27 07:57:32;;;;;;;9.58;3.00;;;;;;;22.58;100.00;99247.95;1711168;82;21447;-53
2022/08/27 07:59:58;;;;;;;14.50;3.67;;;;;;;22.67;100.00;99246.13;1709938;82;20914;-55
2022/08/27 08:02:26;;;;;;;11.57;2.60;;;;;;;22.77;100.00;99247.41;1712310;82;21076;-54
2022/08/27 08:04:52;;;;;;;9.65;2.00;;;;;;;22.88;100.00;99252.63;1708427;82;21482;-54
2022/08/27 08:07:19;;;;;;;6.33;1.42;;;;;;;22.97;100.00;99257.95;1708484;82;21117;-55
2022/08/27 08:09:46;;;;;;;7.72;1.90;;;;;;;23.07;100.00;99245.48;1700338;82;21037;-54
2022/08/27 08:12:13;;;;;;;13.35;1.77;;;;;;;23.18;100.00;99247.93;1674048;83;21046;-55
2022/08/27 08:14:40;;;;;;;9.10;1.40;;;;;;;23.30;100.00;99245.24;1717751;82;21092;-54
2022/08/27 08:17:07;;;;;;;2.58;1.60;;;;;;;23.42;100.00;99244.91;1709382;82;22428;-55
2022/08/27 08:19:33;;;;;;;5.65;1.52;;;;;;;23.51;100.00;99251.66;1712153;82;21222;-54
2022/08/27 08:22:00;;;;;;;3.27;1.30;;;;;;;23.59;100.00;99242.06;1714889;82;21052;-54
2022/08/27 08:24:26;;;;;;;6.53;2.10;;;;;;;23.66;100.00;99243.09;1712587;82;21078;-55
2022/08/27 08:26:53;;;;;;;7.35;2.27;;;;;;;23.71;100.00;99242.09;1715974;82;21105;-54
2022/08/27 08:29:19;;;;;;;3.02;1.30;;;;;;;23.75;100.00;99246.72;1710924;82;21134;-54
2022/08/27 08:31:46;;;;;;;3.92;1.22;;;;;;;23.78;100.00;99236.77;1622149;85;21225;-55
2022/08/27 08:34:13;;;;;;;2.08;1.30;;;;;;;23.81;100.00;99232.32;1715654;82;21085;-55
2022/08/27 08:36:39;;;;;;;2.62;1.10;;;;;;;23.85;100.00;99227.32;1686640;83;21084;-54
2022/08/27 08:39:05;;;;;;;7.58;1.95;;;;;;;23.89;100.00;99232.84;1705755;82;21550;-54
2022/08/27 08:41:43;;;;;;;3.35;1.20;;;;;;;23.91;100.00;99228.00;1708169;82;21069;-55
2022/08/27 08:44:17;;;;;;;6.20;1.47;;;;;;;23.93;100.00;99222.69;1715076;82;21464;-52
2022/08/27 08:46:48;;;;;;;7.05;1.32;;;;;;;23.95;100.00;99224.76;1708908;82;21365;-52
2022/08/27 08:49:33;;;;;;;3.62;1.40;;;;;;;23.97;100.00;99226.83;1711584;82;21164;-53
2022/08/27 08:52:36;;;;;;;7.20;2.22;;;;;;;23.99;100.00;99222.50;1709457;82;21069;-51
2022/08/27 08:55:34;;;;;;;3.20;1.27;;;;;;;24.00;100.00;99226.98;1712966;82;21790;-52
2022/08/27 08:58:29;;;;;;;6.45;1.62;;;;;;;23.98;100.00;99217.55;1705056;82;21099;-52
2022/08/27 09:01:00;;;;;;;6.33;1.80;;;;;;;23.96;100.00;99220.98;1719068;82;21057;-52
2022/08/27 09:03:27;;;;;;;8.58;1.67;;;;;;;23.96;100.00;99222.36;1646495;84;21135;-53
2022/08/27 09:06:01;;;;;;;6.83;1.52;;;;;;;23.96;100.00;99227.86;1673309;84;21566;-54
2022/08/27 09:08:35;;;;;;;6.55;1.65;;;;;;;23.97;100.00;99222.70;1638148;85;21058;-53
2022/08/27 09:11:25;;;;;;;5.90;2.05;;;;;;;24.00;100.00;99226.98;1635186;85;21930;-52
2022/08/27 09:14:02;;;;;;;6.62;1.30;;;;;;;24.04;100.00;99219.61;1639372;85;21105;-51
2022/08/27 09:16:28;;;;;;;8.55;1.45;;;;;;;24.09;100.00;99214.44;1642521;85;21072;-53
2022/08/27 09:18:55;;;;;;;7.33;1.85;;;;;;;24.18;100.00;99213.05;1673611;84;21055;-52
2022/08/27 09:21:45;;;;;;;6.80;1.30;;;;;;;24.24;100.00;99214.64;1635725;85;21542;-52
2022/08/27 09:24:35;;;;;;;3.35;1.65;;;;;;;24.31;100.00;99213.43;1682075;84;21532;-52
2022/08/27 09:27:01;;;;;;;6.75;1.32;;;;;;;24.40;100.00;99225.63;1671697;84;21101;-53
2022/08/27 09:29:28;;;;;;;3.27;1.20;;;;;;;24.51;100.00;99210.61;1655469;84;21062;-53
2022/08/27 09:32:04;;;;;;;6.10;1.20;;;;;;;24.61;100.00;99217.30;1634295;85;21060;-53
2022/08/27 09:34:40;;;;;;;4.12;1.02;;;;;;;24.72;100.00;99223.30;1656490;85;21640;-55
2022/08/27 09:37:14;;;;;;;6.22;1.67;;;;;;;24.85;100.00;99224.95;1669108;84;21877;-55
2022/08/27 09:39:50;;;;;;;5.97;0.90;;;;;;;24.99;100.00;99219.80;1676225;84;21489;-55
2022/08/27 09:42:45;;;;;;;10.32;1.72;;;;;;;25.15;100.00;99223.85;1666276;84;21031;-54
2022/08/27 09:45:16;;;;;;;3.62;1.00;;;;;;;25.31;100.00;99217.39;1632464;84;21117;-54
2022/08/27 09:48:04;;;;;;;11.18;1.00;;;;;;;25.52;100.00;99213.49;1677367;84;21326;-54
2022/08/27 09:50:39;;;;;;;8.55;1.50;;;;;;;25.71;100.00;99215.78;1675836;84;21517;-55
2022/08/27 09:53:24;;;;;;;9.08;1.10;;;;;;;25.94;100.00;99208.91;1636634;85;21562;-54
2022/08/27 09:56:03;;;;;;;14.87;2.27;;;;;;;26.14;100.00;99211.47;1642551;85;21059;-52
2022/08/27 09:58:34;;;;;;;7.92;1.52;;;;;;;26.36;100.00;99208.37;1671684;84;21051;-53
2022/08/27 10:01:08;;;;;;;8.83;1.55;;;;;;;26.53;100.00;99203.55;1642684;85;21117;-52
2022/08/27 10:03:35;;;;;;;5.83;1.40;;;;;;;26.70;100.00;99210.08;1657171;84;21239;-54
2022/08/27 10:06:01;;;;;;;5.65;1.57;;;;;;;26.87;100.00;99201.08;1666049;84;21068;-53
2022/08/27 10:08:44;;;;;;;6.53;1.40;;;;;;;26.98;100.00;99201.13;1670153;84;21449;-55
2022/08/27 10:11:25;;;;;;;13.32;1.55;;;;;;;27.07;100.00;99201.36;1703804;82;21113;-53
2022/08/27 10:14:19;;;;;;;14.80;2.15;;;;;;;27.16;100.00;99204.34;1674595;82;21117;-54
2022/08/27 10:17:21;;;;;;;8.48;1.27;;;;;;;27.25;100.00;99205.95;1678187;84;21473;-52
2022/08/27 10:20:09;;;;;;;14.75;2.00;;;;;;;27.34;100.00;99204.78;1643814;85;20970;-54
2022/08/27 10:23:05;;;;;;;9.55;2.12;;;;;;;27.44;100.00;99205.86;1650440;85;21060;-54
2022/08/27 10:25:54;;;;;;;10.15;1.50;;;;;;;27.52;100.00;99201.59;1707529;82;21060;-53
2022/08/27 10:28:54;;;;;;;20.27;2.05;;;;;;;27.60;100.00;99197.88;1704925;82;21009;-53
2022/08/27 10:32:04;;;;;;;12.37;1.47;;;;;;;27.64;100.00;99203.36;1720604;82;21751;-53
2022/08/27 10:34:45;;;;;;;13.05;1.47;;;;;;;27.68;100.00;99198.61;1700077;82;21361;-52
2022/08/27 10:37:51;;;;;;;13.03;2.33;;;;;;;27.74;100.00;99201.11;1703638;82;20895;-53
2022/08/27 10:40:37;;;;;;;10.98;1.85;;;;;;;27.78;100.00;99197.77;1705236;82;20925;-53
2022/08/27 10:43:36;;;;;;;14.83;1.57;;;;;;;27.86;100.00;99200.92;1701349;82;21336;-54
2022/08/27 10:46:50;;;;;;;11.85;1.30;;;;;;;27.92;100.00;99201.50;1704866;82;21187;-53
2022/08/27 10:49:37;;;;;;;11.57;1.20;;;;;;;27.99;100.00;99207.95;1698993;82;21173;-54
2022/08/27 10:52:17;;;;;;;11.85;2.08;;;;;;;28.03;100.00;99213.95;1698175;82;21035;-54
2022/08/27 10:54:58;;;;;;;13.38;1.37;;;;;;;28.04;100.00;99221.20;1704743;82;20967;-54
2022/08/27 10:57:52;;;;;;;9.33;1.37;;;;;;;28.04;100.00;99216.53;1708258;82;21034;-54
2022/08/27 11:00:20;;;;;;;17.70;1.70;;;;;;;28.03;100.00;99220.34;1705510;82;21561;-54
2022/08/27 11:03:03;;;;;;;15.93;3.42;;;;;;;28.01;100.00;99217.44;1679964;82;21096;-54
2022/08/27 11:05:35;;;;;;;16.93;3.62;;;;;;;27.98;100.00;99214.56;1700943;82;21058;-54
2022/08/27 11:08:40;;;;;;;19.15;2.27;;;;;;;27.97;100.00;99221.14;1705445;82;21461;-55
2022/08/27 11:11:17;;;;;;;18.10;1.87;;;;;;;27.97;100.00;99216.14;1707273;82;21082;-54
2022/08/27 11:13:45;;;;;;;21.15;1.70;;;;;;;27.98;100.00;99224.77;1671291;84;22728;-53
2022/08/27 11:16:26;;;;;;;15.03;2.00;;;;;;;27.98;100.00;99212.33;1671524;82;21062;-53
2022/08/27 11:19:09;;;;;;;15.05;1.42;;;;;;;27.99;100.00;99214.00;1697791;82;21103;-54
2022/08/27 11:21:48;;;;;;;3.95;1.10;;;;;;;28.01;100.00;99214.67;1658080;84;21148;-53
2022/08/27 11:24:38;;;;;;;9.75;1.42;;;;;;;28.03;100.00;99212.05;1702238;82;21031;-54
2022/08/27 11:27:06;;;;;;;6.90;1.40;;;;;;;28.04;100.00;99211.52;1588009;86;21664;-53
2022/08/27 11:29:47;;;;;;;12.45;1.50;;;;;;;28.05;100.00;99210.47;1659002;84;21093;-54
2022/08/27 11:32:25;;;;;;;7.03;1.65;;;;;;;28.05;100.00;99214.09;1697433;82;21065;-54
2022/08/27 11:35:18;;;;;;;10.00;1.50;;;;;;;28.05;100.00;99202.17;1700119;82;21166;-55
2022/08/27 11:38:07;;;;;;;8.78;1.15;;;;;;;28.06;100.00;99201.98;1680001;84;22295;-54
2022/08/27 11:40:52;;;;;;;10.63;1.30;;;;;;;28.08;100.00;99201.23;1674489;84;22190;-53
2022/08/27 11:43:22;;;;;;;9.13;1.77;;;;;;;28.10;100.00;99201.03;1704298;82;21741;-55
2022/08/27 11:45:57;;;;;;;15.15;2.50;;;;;;;28.12;100.00;99197.55;1698170;82;21030;-53
2022/08/27 11:48:31;;;;;;;16.90;3.05;;;;;;;28.14;100.00;99196.30;1700207;82;21139;-54
2022/08/27 11:51:28;;;;;;;10.72;1.15;;;;;;;28.17;100.00;99194.53;1697813;82;21120;-54
2022/08/27 11:53:58;;;;;;;9.50;1.45;;;;;;;28.20;100.00;99194.14;1678280;82;21223;-54